Time;durP1;ratioP1;P1;durP2;ratioP2;P2;SDS_P1;SDS_P2;PMS_P1;PMS_P2;Temp;Humidity;BMP_temperature;BMP_pressure;BME280_temperature;BME280_humidity;BME280_pressure;Samples;Min_cycle;Max_cycle;Signal;HPM_P1;HPM_P2
2024/01/16 00:02:37;;;;;;;43.00;21.60;;;;;;;-10.75;100.00;139676.80;107050;1266;25360;-61
2024/01/16 00:05:23;;;;;;;39.30;20.10;;;;;;;-10.67;100.00;139695.00;107008;1266;25347;-63
2024/01/16 00:08:09;;;;;;;47.10;23.10;;;;;;;-10.60;100.00;139712.47;106974;1266;25394;-62
2024/01/16 00:10:54;;;;;;;44.10;22.40;;;;;;;-10.59;100.00;139715.44;106913;1266;25406;-63
2024/01/16 00:13:40;;;;;;;38.90;19.90;;;;;;;-10.59;100.00;139716.41;106928;1266;25465;-62
2024/01/16 00:16:26;;;;;;;41.50;21.90;;;;;;;-10.56;100.00;139721.83;106952;1266;25357;-61
2024/01/16 00:19:12;;;;;;;36.50;19.60;;;;;;;-10.55;100.00;139724.28;106957;1264;25369;-57
2024/01/16 00:22:00;;;;;;;38.40;21.30;;;;;;;-10.55;100.00;139726.03;106972;1273;25344;-58
2024/01/16 00:24:45;;;;;;;40.20;21.20;;;;;;;-10.55;100.00;139725.30;107000;1275;22571;-58
2024/01/16 00:27:31;;;;;;;47.40;24.60;;;;;;;-10.53;100.00;139728.72;106932;1275;25456;-60
2024/01/16 00:30:17;;;;;;;48.10;23.40;;;;;;;-10.53;100.00;139730.44;106968;1266;25444;-62
2024/01/16 00:33:02;;;;;;;43.10;21.70;;;;;;;-10.53;100.00;139731.17;106932;1264;25401;-60
2024/01/16 00:35:48;;;;;;;41.80;22.70;;;;;;;-10.54;100.00;139727.00;106953;1266;25347;-63
2024/01/16 00:38:34;;;;;;;38.40;20.90;;;;;;;-10.53;100.00;139729.45;106966;1263;25545;-61
2024/01/16 00:41:20;;;;;;;36.80;20.20;;;;;;;-10.48;100.00;139741.28;106972;1264;25455;-63
2024/01/16 00:44:06;;;;;;;40.00;20.30;;;;;;;-10.42;100.00;139755.80;106929;1266;25549;-59
2024/01/16 00:46:51;;;;;;;34.60;19.30;;;;;;;-10.40;100.00;139760.23;106958;1266;25354;-59
2024/01/16 00:49:37;;;;;;;35.40;19.80;;;;;;;-10.44;100.00;139751.38;106967;1265;26060;-62
2024/01/16 00:52:23;;;;;;;39.20;19.40;;;;;;;-10.45;100.00;139749.16;106963;1266;25489;-59
2024/01/16 00:55:08;;;;;;;39.40;20.90;;;;;;;-10.46;100.00;139747.67;107123;1266;25436;-55
2024/01/16 00:57:54;;;;;;;40.90;21.60;;;;;;;-10.46;100.00;139746.92;107069;1264;25439;-60
2024/01/16 01:00:39;;;;;;;39.60;19.60;;;;;;;-10.46;100.00;139746.67;107091;1264;25451;-57
2024/01/16 01:03:25;;;;;;;37.60;19.80;;;;;;;-10.45;100.00;139749.89;107089;1263;25399;-61
2024/01/16 01:06:11;;;;;;;36.50;20.30;;;;;;;-10.43;100.00;139753.59;107094;1266;25414;-61
2024/01/16 01:08:59;;;;;;;35.10;18.40;;;;;;;-10.42;100.00;139756.53;107096;1266;25411;-61
2024/01/16 01:11:45;;;;;;;38.70;19.00;;;;;;;-10.44;100.00;139752.09;106996;1263;25491;-59
2024/01/16 01:14:31;;;;;;;34.40;18.50;;;;;;;-10.42;100.00;139756.30;107147;1266;25353;-62
2024/01/16 01:17:16;;;;;;;36.90;18.70;;;;;;;-10.39;100.00;139764.41;107148;1265;25554;-59
2024/01/16 01:20:02;;;;;;;35.40;19.20;;;;;;;-10.40;100.00;139762.45;107100;1263;25369;-58
2024/01/16 01:22:48;;;;;;;36.40;21.50;;;;;;;-10.43;100.00;139753.09;107078;1265;23267;-56
2024/01/16 01:25:33;;;;;;;40.90;21.40;;;;;;;-10.49;100.00;139738.83;107069;1270;22520;-56
2024/01/16 01:28:19;;;;;;;37.30;20.20;;;;;;;-10.53;100.00;139728.72;107001;1263;25325;-62
2024/01/16 01:31:04;;;;;;;37.70;21.00;;;;;;;-10.55;100.00;139725.05;107074;1266;25421;-57
2024/01/16 01:33:50;;;;;;;41.30;22.30;;;;;;;-10.55;100.00;139725.53;107059;1266;25393;-58
2024/01/16 01:36:36;;;;;;;41.00;21.80;;;;;;;-10.54;100.00;139727.50;107086;1264;22639;-61
2024/01/16 01:39:21;;;;;;;44.70;23.80;;;;;;;-10.51;100.00;139735.36;107010;1263;25418;-57
2024/01/16 01:42:06;;;;;;;41.30;22.80;;;;;;;-10.43;100.00;139754.83;106910;1268;25492;-58
2024/01/16 01:44:52;;;;;;;41.90;22.20;;;;;;;-10.34;100.00;139775.50;107084;1266;25365;-60
2024/01/16 01:47:44;;;;;;;41.60;23.30;;;;;;;-10.28;100.00;139790.50;107090;1263;23192;-64
2024/01/16 01:50:31;;;;;;;49.50;23.70;;;;;;;-10.24;100.00;139800.30;107117;1263;25427;-62
2024/01/16 01:53:16;;;;;;;42.20;22.40;;;;;;;-10.22;100.00;139803.75;107146;1256;25389;-58
2024/01/16 01:56:09;;;;;;;48.70;23.50;;;;;;;-10.22;100.00;139803.75;106964;1266;25571;-59
2024/01/16 01:58:58;;;;;;;45.90;22.70;;;;;;;-10.23;100.00;139802.53;106909;1261;25372;-59
2024/01/16 02:01:46;;;;;;;44.70;22.00;;;;;;;-10.24;100.00;139799.09;106995;1266;25494;-64
2024/01/16 02:04:34;;;;;;;41.40;21.40;;;;;;;-10.22;100.00;139803.28;106962;1266;25376;-59
2024/01/16 02:07:19;;;;;;;43.60;22.40;;;;;;;-10.22;100.00;139805.00;107061;1269;25359;-63
2024/01/16 02:10:06;;;;;;;44.60;22.90;;;;;;;-10.21;100.00;139806.70;107001;1265;25411;-60
2024/01/16 02:12:52;;;;;;;42.50;23.00;;;;;;;-10.18;100.00;139813.84;107007;1264;25353;-59
2024/01/16 02:15:41;;;;;;;39.80;22.30;;;;;;;-10.18;100.00;139813.34;106991;1266;25393;-61
2024/01/16 02:18:27;;;;;;;44.80;24.00;;;;;;;-10.16;100.00;139819.02;106995;1266;25349;-61
2024/01/16 02:21:18;;;;;;;43.40;22.60;;;;;;;-10.14;100.00;139823.70;107026;1266;25332;-58
2024/01/16 02:24:05;;;;;;;44.30;23.50;;;;;;;-10.14;100.00;139822.97;106991;1263;25395;-61
2024/01/16 02:26:51;;;;;;;46.90;23.50;;;;;;;-10.15;100.00;139820.00;107007;1263;25336;-58
2024/01/16 02:29:43;;;;;;;44.40;23.60;;;;;;;-10.15;100.00;139820.50;106969;1266;25344;-61
2024/01/16 02:32:28;;;;;;;37.20;22.00;;;;;;;-10.15;100.00;139821.97;107024;1265;25334;-59
2024/01/16 02:35:15;;;;;;;45.10;24.10;;;;;;;-10.14;100.00;139823.92;106990;1263;25491;-57
2024/01/16 02:38:00;;;;;;;45.00;23.40;;;;;;;-10.14;100.00;139823.47;107005;1266;25513;-60
2024/01/16 02:40:46;;;;;;;46.80;25.00;;;;;;;-10.14;100.00;139822.47;107005;1266;25406;-61
2024/01/16 02:43:31;;;;;;;47.00;25.80;;;;;;;-10.13;100.00;139825.42;107016;1266;25411;-59
2024/01/16 02:46:17;;;;;;;43.90;24.80;;;;;;;-10.08;100.00;139837.47;107120;1266;23728;-63
2024/01/16 02:49:03;;;;;;;55.40;27.20;;;;;;;-10.05;100.00;139846.59;107092;1266;25348;-61
2024/01/16 02:51:48;;;;;;;46.90;27.10;;;;;;;-10.04;100.00;139848.81;106955;1266;25372;-63
2024/01/16 02:54:34;;;;;;;45.70;24.60;;;;;;;-10.03;100.00;139849.03;107078;1266;25371;-61
2024/01/16 02:57:20;;;;;;;51.50;26.60;;;;;;;-10.05;100.00;139844.88;107114;1265;25389;-62
2024/01/16 03:00:07;;;;;;;40.90;22.70;;;;;;;-10.08;100.00;139838.72;107093;1266;25428;-62
2024/01/16 03:02:53;;;;;;;39.00;22.30;;;;;;;-10.11;100.00;139830.34;107146;1263;24341;-62
2024/01/16 03:05:38;;;;;;;39.10;21.80;;;;;;;-10.14;100.00;139823.70;107098;1266;25394;-61
2024/01/16 03:08:25;;;;;;;40.00;21.10;;;;;;;-10.17;100.00;139817.30;107047;1266;25366;-59
2024/01/16 03:11:10;;;;;;;39.60;21.00;;;;;;;-10.21;100.00;139805.72;107117;1256;25406;-60
2024/01/16 03:13:56;;;;;;;35.70;19.10;;;;;;;-10.27;100.00;139792.95;107119;1267;25372;-54
2024/01/16 03:16:41;;;;;;;34.90;18.80;;;;;;;-10.32;100.00;139781.16;107183;1260;25516;-61
2024/01/16 03:19:27;;;;;;;32.40;18.40;;;;;;;-10.31;100.00;139782.63;107131;1265;25421;-58
2024/01/16 03:22:13;;;;;;;35.60;20.90;;;;;;;-10.28;100.00;139789.77;107107;1263;25360;-59
2024/01/16 03:24:58;;;;;;;38.30;21.40;;;;;;;-10.23;100.00;139800.58;107118;1266;25484;-60
2024/01/16 03:27:44;;;;;;;35.90;20.10;;;;;;;-10.24;100.00;139798.58;107086;1263;25338;-58
2024/01/16 03:30:29;;;;;;;35.30;19.80;;;;;;;-10.27;100.00;139792.45;107083;1265;25384;-54
2024/01/16 03:33:15;;;;;;;34.50;20.20;;;;;;;-10.30;100.00;139785.59;107025;1270;25450;-60
2024/01/16 03:36:01;;;;;;;39.50;20.60;;;;;;;-10.34;100.00;139776.25;107030;1260;25351;-62
2024/01/16 03:38:46;;;;;;;37.80;20.10;;;;;;;-10.37;100.00;139769.09;107168;1266;25539;-62
2024/01/16 03:41:32;;;;;;;37.80;20.90;;;;;;;-10.40;100.00;139761.22;107050;1263;25600;-60
2024/01/16 03:44:17;;;;;;;36.10;20.90;;;;;;;-10.43;100.00;139753.34;107155;1266;25287;-56
2024/01/16 03:47:03;;;;;;;38.90;21.50;;;;;;;-10.43;100.00;139754.08;106990;1266;25542;-57
2024/01/16 03:49:48;;;;;;;31.50;18.80;;;;;;;-10.39;100.00;139763.17;107005;1266;25415;-62
2024/01/16 03:52:34;;;;;;;34.10;18.80;;;;;;;-10.35;100.00;139773.28;106999;1266;25366;-58
2024/01/16 03:55:19;;;;;;;38.50;20.50;;;;;;;-10.35;100.00;139774.78;107011;1266;25335;-63
2024/01/16 03:58:05;;;;;;;33.20;20.40;;;;;;;-10.33;100.00;139779.44;106995;1263;25558;-61
2024/01/16 04:00:51;;;;;;;36.40;18.60;;;;;;;-10.34;100.00;139775.72;107045;1266;25337;-61
2024/01/16 04:03:38;;;;;;;32.90;19.80;;;;;;;-10.37;100.00;139769.09;107004;1265;25392;-59
2024/01/16 04:06:23;;;;;;;40.00;20.50;;;;;;;-10.40;100.00;139760.97;106998;1266;25366;-60
2024/01/16 04:09:09;;;;;;;37.10;20.90;;;;;;;-10.44;100.00;139750.63;107047;1263;25388;-59
2024/01/16 04:11:55;;;;;;;36.60;19.90;;;;;;;-10.49;100.00;139741.03;107019;1263;25366;-61
2024/01/16 04:14:40;;;;;;;39.10;19.60;;;;;;;-10.54;100.00;139728.23;106953;1266;25484;-62
2024/01/16 04:17:26;;;;;;;40.20;21.80;;;;;;;-10.57;100.00;139718.88;107027;1264;25459;-58
2024/01/16 04:20:12;;;;;;;38.50;19.80;;;;;;;-10.59;100.00;139716.16;107003;1264;25414;-61
2024/01/16 04:22:58;;;;;;;36.10;19.70;;;;;;;-10.57;100.00;139720.83;107014;1266;25411;-60
2024/01/16 04:25:43;;;;;;;33.90;19.00;;;;;;;-10.54;100.00;139726.73;107020;1263;25410;-57
2024/01/16 04:28:29;;;;;;;33.60;18.50;;;;;;;-10.53;100.00;139730.94;107033;1266;25494;-58
2024/01/16 04:31:16;;;;;;;40.70;19.80;;;;;;;-10.52;100.00;139732.91;107041;1263;25360;-62
2024/01/16 04:34:02;;;;;;;43.40;20.80;;;;;;;-10.52;100.00;139731.42;107015;1266;25525;-59
2024/01/16 04:36:48;;;;;;;35.60;20.10;;;;;;;-10.56;100.00;139722.09;107129;1263;25357;-57
2024/01/16 04:39:33;;;;;;;35.40;19.40;;;;;;;-10.59;100.00;139715.17;107091;1257;25372;-61
2024/01/16 04:42:19;;;;;;;36.40;20.50;;;;;;;-10.61;100.00;139711.00;107133;1263;25334;-62
2024/01/16 04:45:04;;;;;;;36.30;20.20;;;;;;;-10.64;100.00;139703.36;107162;1266;25415;-62
2024/01/16 04:47:50;;;;;;;38.70;19.60;;;;;;;-10.69;100.00;139692.05;107123;1266;25424;-63
2024/01/16 04:50:35;;;;;;;32.50;18.70;;;;;;;-10.73;100.00;139682.70;107235;1266;25465;-61
2024/01/16 04:53:21;;;;;;;40.40;20.10;;;;;;;-10.72;100.00;139685.91;107103;1266;24199;-58
2024/01/16 04:56:07;;;;;;;31.50;18.30;;;;;;;-10.67;100.00;139696.47;107053;1275;25545;-60
2024/01/16 04:58:52;;;;;;;34.20;19.10;;;;;;;-10.61;100.00;139710.75;107042;1266;25369;-60
2024/01/16 05:01:38;;;;;;;34.50;19.00;;;;;;;-10.57;100.00;139719.88;107099;1266;25363;-59
2024/01/16 05:04:23;;;;;;;37.00;19.30;;;;;;;-10.56;100.00;139723.06;106915;1272;25436;-59
2024/01/16 05:07:09;;;;;;;38.90;18.90;;;;;;;-10.55;100.00;139725.28;106951;1273;25428;-63
2024/01/16 05:09:55;;;;;;;36.50;20.00;;;;;;;-10.51;100.00;139733.66;106965;1266;25672;-64
2024/01/16 05:12:41;;;;;;;40.90;20.40;;;;;;;-10.48;100.00;139741.28;106974;1266;25366;-62
2024/01/16 05:15:26;;;;;;;40.50;20.30;;;;;;;-10.47;100.00;139745.22;106963;1266;25366;-57
2024/01/16 05:18:12;;;;;;;36.40;19.80;;;;;;;-10.46;100.00;139747.17;106931;1266;25724;-58
2024/01/16 05:20:58;;;;;;;36.00;19.40;;;;;;;-10.47;100.00;139744.23;106967;1267;25421;-64
2024/01/16 05:23:46;;;;;;;36.20;18.80;;;;;;;-10.47;100.00;139744.47;107022;1270;25395;-61
2024/01/16 05:26:31;;;;;;;36.10;18.70;;;;;;;-10.45;100.00;139748.91;107022;1266;25524;-64
2024/01/16 05:29:18;;;;;;;38.30;19.80;;;;;;;-10.41;100.00;139758.25;106988;1273;25353;-61
2024/01/16 05:32:05;;;;;;;41.30;20.40;;;;;;;-10.39;100.00;139764.41;106977;1266;25424;-58
2024/01/16 05:34:50;;;;;;;40.20;22.00;;;;;;;-10.38;100.00;139766.66;106883;1269;125165;-63
2024/01/16 05:37:37;;;;;;;38.20;19.20;;;;;;;-10.38;100.00;139766.88;106945;1260;26510;-61
2024/01/16 05:40:22;;;;;;;36.70;19.70;;;;;;;-10.42;100.00;139757.78;107028;1271;25360;-62
2024/01/16 05:43:07;;;;;;;40.30;20.30;;;;;;;-10.47;100.00;139744.47;107021;1266;25424;-58
2024/01/16 05:45:53;;;;;;;40.00;21.30;;;;;;;-10.48;100.00;139743.00;107027;1266;25347;-60
2024/01/16 05:48:38;;;;;;;37.50;20.50;;;;;;;-10.48;100.00;139741.53;107002;1263;25418;-62
2024/01/16 05:51:29;;;;;;;38.20;19.40;;;;;;;-10.50;100.00;139738.58;107000;1263;25347;-61
2024/01/16 05:54:15;;;;;;;40.80;21.10;;;;;;;-10.53;100.00;139730.69;107054;1266;25328;-62
2024/01/16 05:57:00;;;;;;;40.90;19.40;;;;;;;-10.54;100.00;139728.72;107087;1270;25366;-61
2024/01/16 05:59:46;;;;;;;39.60;19.90;;;;;;;-10.53;100.00;139730.19;107081;1266;25338;-61
2024/01/16 06:02:32;;;;;;;40.90;20.80;;;;;;;-10.51;100.00;139734.38;107135;1266;22533;-61
2024/01/16 06:05:18;;;;;;;40.90;20.60;;;;;;;-10.50;100.00;139738.34;107119;1275;24452;-58
2024/01/16 06:08:03;;;;;;;35.50;19.20;;;;;;;-10.53;100.00;139729.70;107021;1266;25424;-60
2024/01/16 06:10:49;;;;;;;36.20;20.30;;;;;;;-10.57;100.00;139720.61;107036;1266;25414;-61
2024/01/16 06:13:35;;;;;;;38.20;19.60;;;;;;;-10.57;100.00;139720.36;107047;1266;25366;-58
2024/01/16 06:16:20;;;;;;;34.60;19.30;;;;;;;-10.58;100.00;139717.39;107239;1266;25350;-58
2024/01/16 06:19:07;;;;;;;39.30;20.60;;;;;;;-10.57;100.00;139720.13;107104;1266;25392;-60
2024/01/16 06:21:53;;;;;;;40.30;21.20;;;;;;;-10.57;100.00;139719.86;107134;1264;23190;-61
2024/01/16 06:24:39;;;;;;;40.00;18.70;;;;;;;-10.54;100.00;139728.72;107105;1268;25405;-56
2024/01/16 06:27:25;;;;;;;41.80;21.30;;;;;;;-10.50;100.00;139736.34;107047;1266;25366;-57
2024/01/16 06:30:11;;;;;;;35.60;19.90;;;;;;;-10.44;100.00;139752.09;106871;1273;25376;-58
2024/01/16 06:32:57;;;;;;;38.80;19.90;;;;;;;-10.38;100.00;139766.13;107060;1266;25367;-58
2024/01/16 06:35:43;;;;;;;39.90;21.00;;;;;;;-10.36;100.00;139771.80;107145;1272;25403;-57
2024/01/16 06:38:28;;;;;;;39.90;20.20;;;;;;;-10.32;100.00;139782.39;106887;1266;25338;-57
2024/01/16 06:41:14;;;;;;;37.80;20.20;;;;;;;-10.27;100.00;139792.94;107069;1266;25564;-61
2024/01/16 06:43:59;;;;;;;42.50;20.70;;;;;;;-10.18;100.00;139812.84;107045;1266;25357;-62
2024/01/16 06:46:45;;;;;;;36.80;20.00;;;;;;;-10.05;100.00;139845.88;107102;1272;25351;-57
2024/01/16 06:49:30;;;;;;;42.40;21.50;;;;;;;-9.64;100.00;139944.38;107055;1272;24218;-62
2024/01/16 06:52:16;;;;;;;39.20;21.30;;;;;;;-8.72;99.47;140166.17;107082;1270;25494;-60
2024/01/16 06:55:02;;;;;;;41.20;21.10;;;;;;;-7.54;94.67;140450.33;106976;1266;25328;-61
2024/01/16 06:57:48;;;;;;;39.00;20.30;;;;;;;-6.57;88.72;140684.67;107025;1266;25338;-65
2024/01/16 07:00:34;;;;;;;37.20;20.30;;;;;;;-6.06;82.79;140806.25;106950;1260;25375;-61
2024/01/16 07:03:19;;;;;;;36.20;20.00;;;;;;;-5.74;80.02;140883.84;107024;1259;25324;-63
2024/01/16 07:06:05;;;;;;;32.70;19.30;;;;;;;-5.09;76.97;141041.89;107114;1260;22854;-62
2024/01/16 07:08:51;;;;;;;35.80;19.40;;;;;;;-4.45;72.56;141197.06;107155;1266;25353;-61
2024/01/16 07:11:38;;;;;;;33.70;19.10;;;;;;;-4.65;69.64;141148.78;107105;1266;25669;-60
2024/01/16 07:14:24;;;;;;;31.80;18.20;;;;;;;-5.16;69.18;141025.30;107177;1272;25338;-64
2024/01/16 07:17:10;;;;;;;29.00;18.30;;;;;;;-5.28;69.59;140995.88;107102;1269;25433;-62
2024/01/16 07:19:58;;;;;;;32.20;17.90;;;;;;;-4.94;67.98;141077.77;107124;1267;25373;-61
2024/01/16 07:22:44;;;;;;;31.90;18.30;;;;;;;-4.27;66.73;141238.66;107114;1266;22641;-60
2024/01/16 07:25:29;;;;;;;27.70;17.80;;;;;;;-3.44;64.37;141441.05;107137;1270;25337;-57
2024/01/16 07:28:15;;;;;;;28.70;17.10;;;;;;;-2.64;62.21;141633.41;107129;1273;23581;-61
2024/01/16 07:31:01;;;;;;;27.00;17.40;;;;;;;-1.83;59.57;141829.64;107229;1271;25586;-62
2024/01/16 07:33:47;;;;;;;33.80;18.00;;;;;;;-1.02;56.69;142026.52;107216;1275;25376;-60
2024/01/16 07:36:33;;;;;;;27.90;17.10;;;;;;;-0.92;55.01;142052.58;107092;1266;25450;-66
2024/01/16 07:39:19;;;;;;;31.70;18.10;;;;;;;-0.20;53.09;142225.28;107097;1266;25335;-60
2024/01/16 07:42:04;;;;;;;25.90;17.40;;;;;;;0.74;50.79;142453.78;107162;1267;25522;-61
2024/01/16 07:44:51;;;;;;;29.80;18.00;;;;;;;1.67;48.66;142680.25;107160;1266;25436;-60
2024/01/16 07:47:37;;;;;;;28.90;18.60;;;;;;;2.54;46.30;142892.70;107121;1266;25450;-60
2024/01/16 07:50:23;;;;;;;27.30;16.60;;;;;;;3.31;44.64;143078.88;106968;1272;25559;-63
2024/01/16 07:53:09;;;;;;;28.10;17.20;;;;;;;3.93;43.60;143232.00;107032;1273;23417;-65
2024/01/16 07:55:55;;;;;;;24.00;15.70;;;;;;;4.65;41.24;143407.70;107124;1273;25348;-61
2024/01/16 07:58:41;;;;;;;23.50;15.80;;;;;;;4.95;39.59;143480.31;107103;1266;25545;-64
2024/01/16 08:01:28;;;;;;;23.20;14.80;;;;;;;5.18;38.33;143535.25;107186;1264;25523;-64
2024/01/16 08:04:14;;;;;;;21.80;14.50;;;;;;;5.15;37.74;143528.50;107089;1272;25334;-59
2024/01/16 08:07:00;;;;;;;22.80;14.80;;;;;;;5.07;37.64;143508.03;107130;1266;25376;-62
2024/01/16 08:09:46;;;;;;;21.70;14.40;;;;;;;5.09;37.33;143514.53;107076;1270;25338;-59
2024/01/16 08:12:32;;;;;;;20.30;13.60;;;;;;;5.17;36.89;143534.75;107126;1267;25401;-64
2024/01/16 08:15:18;;;;;;;16.50;11.70;;;;;;;4.73;36.56;143425.91;106975;1265;25335;-63
2024/01/16 08:18:04;;;;;;;19.20;12.80;;;;;;;4.43;37.13;143353.25;106926;1266;25347;-64
2024/01/16 08:21:05;;;;;;;17.90;12.00;;;;;;;4.41;37.25;143348.53;107961;1260;25334;-64
2024/01/16 08:23:51;;;;;;;18.30;12.20;;;;;;;4.23;37.01;143303.36;107266;1266;25806;-62
2024/01/16 08:26:37;;;;;;;17.10;11.70;;;;;;;3.92;37.20;143228.77;107634;1261;25359;-60
2024/01/16 08:29:23;;;;;;;20.20;12.60;;;;;;;3.58;37.16;143145.20;106999;1266;25489;-60
2024/01/16 08:32:08;;;;;;;19.70;12.50;;;;;;;3.19;38.15;143050.95;107040;1266;24255;-62
2024/01/16 08:34:54;;;;;;;19.50;13.10;;;;;;;3.06;38.23;143018.78;107260;1261;23380;-62
2024/01/16 08:37:39;;;;;;;17.40;12.00;;;;;;;2.52;38.26;142888.72;106938;1261;25337;-58
2024/01/16 08:40:25;;;;;;;20.20;12.40;;;;;;;1.73;39.12;142695.42;107051;1270;25487;-62
2024/01/16 08:43:10;;;;;;;17.10;10.80;;;;;;;0.71;40.43;142447.81;107437;1267;22549;-64
2024/01/16 08:45:56;;;;;;;16.20;10.90;;;;;;;-0.07;41.59;142258.59;107322;1260;26545;-63
2024/01/16 08:48:42;;;;;;;16.30;9.70;;;;;;;-1.09;43.06;142010.63;107238;1269;22601;-62
2024/01/16 08:51:28;;;;;;;15.90;10.10;;;;;;;-2.15;44.87;141754.47;107167;1266;25337;-64
2024/01/16 08:54:14;;;;;;;14.20;8.30;;;;;;;-3.08;46.91;141528.53;107116;1263;25522;-60
2024/01/16 08:56:59;;;;;;;14.00;7.80;;;;;;;-4.11;49.14;141280.03;107340;1260;26306;-62
2024/01/16 08:59:45;;;;;;;12.90;7.40;;;;;;;-5.05;51.65;141050.30;106838;1266;25414;-63
2024/01/16 09:02:32;;;;;;;12.40;7.60;;;;;;;-5.73;53.70;140887.55;107019;1266;25376;-63
2024/01/16 09:05:17;;;;;;;11.70;7.10;;;;;;;-6.19;55.59;140775.84;107244;1266;25382;-61
2024/01/16 09:08:04;;;;;;;15.10;8.00;;;;;;;-6.51;56.64;140699.72;107531;1260;25495;-61
2024/01/16 09:10:50;;;;;;;12.50;6.90;;;;;;;-6.76;57.94;140639.22;107201;1251;25490;-65
2024/01/16 09:13:36;;;;;;;12.60;6.00;;;;;;;-6.91;58.67;140600.42;107369;1260;25484;-59
2024/01/16 09:16:22;;;;;;;13.20;6.30;;;;;;;-7.07;59.65;140563.63;107174;1275;25421;-64
2024/01/16 09:19:09;;;;;;;10.80;6.10;;;;;;;-7.27;60.26;140515.72;107441;1260;23147;-63
2024/01/16 09:21:56;;;;;;;11.50;6.40;;;;;;;-7.36;60.43;140493.53;107526;1260;25391;-67
2024/01/16 09:24:42;;;;;;;15.60;7.00;;;;;;;-7.40;61.31;140483.86;107877;1269;25392;-61
2024/01/16 09:27:27;;;;;;;13.30;7.00;;;;;;;-7.55;61.22;140447.84;107882;1266;25424;-61
2024/01/16 09:30:13;;;;;;;11.80;6.90;;;;;;;-7.71;62.37;140408.36;106887;1259;22539;-62
2024/01/16 09:32:59;;;;;;;14.40;7.30;;;;;;;-7.87;63.23;140371.33;107050;1268;25497;-62
2024/01/16 09:35:45;;;;;;;12.90;7.20;;;;;;;-7.96;63.71;140348.39;107084;1266;25327;-65
2024/01/16 09:38:32;;;;;;;12.50;6.30;;;;;;;-8.08;64.18;140319.28;107139;1267;24365;-65
2024/01/16 09:41:18;;;;;;;14.20;6.90;;;;;;;-8.14;64.94;140304.72;107946;1260;23455;-65
2024/01/16 09:44:06;;;;;;;12.10;6.90;;;;;;;-8.07;65.42;140322.97;107351;1264;25356;-65
2024/01/16 09:46:54;;;;;;;15.00;6.50;;;;;;;-7.95;65.27;140350.84;107484;1266;25375;-66
2024/01/16 09:49:41;;;;;;;12.00;6.70;;;;;;;-7.86;65.44;140372.81;107601;1260;22611;-65
2024/01/16 09:52:27;;;;;;;14.50;8.20;;;;;;;-7.82;65.16;140381.45;107336;1264;25529;-66
2024/01/16 09:55:14;;;;;;;12.40;6.70;;;;;;;-7.80;64.91;140387.88;107075;1263;25334;-65
2024/01/16 09:58:03;;;;;;;13.60;7.20;;;;;;;-7.76;65.27;140396.23;107055;1261;26023;-67
2024/01/16 10:00:50;;;;;;;11.80;6.80;;;;;;;-7.72;65.13;140407.34;107174;1263;25361;-64
2024/01/16 10:03:37;;;;;;;12.30;7.00;;;;;;;-7.72;64.81;140405.63;106907;1256;23301;-64
2024/01/16 10:06:27;;;;;;;12.20;6.80;;;;;;;-7.69;65.42;140415.02;107179;1273;22669;-64
2024/01/16 10:09:13;;;;;;;11.30;6.60;;;;;;;-7.56;65.48;140444.88;107360;1257;25347;-66
2024/01/16 10:12:00;;;;;;;11.90;6.30;;;;;;;-7.44;65.59;140473.53;107431;1260;22625;-64
2024/01/16 10:14:46;;;;;;;12.50;6.50;;;;;;;-7.25;64.33;140520.41;107357;1267;23221;-68
2024/01/16 10:17:41;;;;;;;11.40;6.40;;;;;;;-7.12;63.34;140551.28;107151;1256;23413;-66
2024/01/16 10:20:35;;;;;;;11.50;5.70;;;;;;;-7.05;62.81;140567.33;107122;1258;22537;-64
2024/01/16 10:23:24;;;;;;;10.50;5.30;;;;;;;-7.24;61.82;140521.66;106867;1263;25347;-67
2024/01/16 10:26:13;;;;;;;9.60;4.90;;;;;;;-7.41;62.34;140481.66;107068;1267;25410;-64
2024/01/16 10:29:06;;;;;;;10.30;5.80;;;;;;;-7.69;62.64;140413.30;107431;1275;25423;-62
2024/01/16 10:31:52;;;;;;;11.70;6.10;;;;;;;-7.85;63.44;140374.30;107095;1257;25337;-64
2024/01/16 10:34:38;;;;;;;7.90;4.10;;;;;;;-8.07;63.66;140321.47;107367;1258;25338;-63
2024/01/16 10:37:24;;;;;;;8.90;5.10;;;;;;;-8.21;63.49;140289.16;107277;1274;25408;-63
2024/01/16 10:40:14;;;;;;;7.00;3.50;;;;;;;-8.06;62.82;140323.95;107235;1268;22179;-63
2024/01/16 10:43:03;;;;;;;6.10;2.90;;;;;;;-7.98;61.85;140342.45;107197;1257;25599;-64
2024/01/16 10:45:49;;;;;;;8.50;2.80;;;;;;;-8.04;61.50;140329.14;106952;1263;25347;-63
2024/01/16 10:48:35;;;;;;;4.30;2.20;;;;;;;-8.32;60.85;140262.78;107487;1256;25337;-63
2024/01/16 10:51:21;;;;;;;6.40;2.90;;;;;;;-8.60;61.50;140194.77;107016;1256;25439;-63
2024/01/16 10:54:13;;;;;;;4.60;2.20;;;;;;;-8.76;61.89;140156.55;107031;1261;25424;-63
2024/01/16 10:56:59;;;;;;;5.60;2.00;;;;;;;-8.86;62.45;140132.39;107080;1256;25400;-63
2024/01/16 11:00:17;;;;;;;5.90;2.50;;;;;;;-8.86;63.02;140130.66;107170;1268;23199;-65
2024/01/16 11:03:10;;;;;;;4.70;2.50;;;;;;;-8.92;61.89;140117.84;106779;1270;25336;-63
2024/01/16 11:05:58;;;;;;;;;;;;;;;-9.08;62.16;140079.88;106595;1282;25394;-64
2024/01/16 11:08:49;;;;;;;5.50;2.50;;;;;;;-9.14;62.80;140063.13;106614;1264;22544;-66
2024/01/16 11:11:37;;;;;;;3.80;1.60;;;;;;;-9.12;62.78;140069.28;106611;1264;22556;-63
2024/01/16 11:14:25;;;;;;;3.80;2.10;;;;;;;-9.21;62.59;140048.09;107128;1267;23657;-65
2024/01/16 11:17:17;;;;;;;4.10;2.00;;;;;;;-9.28;62.82;140031.33;106769;1266;25388;-63
2024/01/16 11:20:09;;;;;;;;;;;;;;;-9.32;62.94;140021.22;106738;1273;25330;-63
2024/01/16 11:23:15;;;;;;;3.30;1.90;;;;;;;-9.35;63.10;140013.34;106473;1264;25422;-62
2024/01/16 11:26:32;;;;;;;4.10;2.10;;;;;;;-9.33;63.06;140017.78;106728;1267;25426;-63
2024/01/16 11:29:26;;;;;;;6.00;2.10;;;;;;;-9.29;62.96;140028.38;107022;1267;25171;-65
2024/01/16 11:32:33;;;;;;;6.00;2.40;;;;;;;-9.21;62.77;140048.34;106483;1261;25405;-60
2024/01/16 11:35:36;;;;;;;4.90;2.30;;;;;;;-9.11;62.49;140070.28;106754;1270;25401;-63
2024/01/16 11:38:26;;;;;;;4.20;2.10;;;;;;;-9.05;62.69;140085.31;106455;1267;23279;-65
2024/01/16 11:41:48;;;;;;;4.50;2.40;;;;;;;-8.99;62.12;140101.06;107305;1260;25372;-63
2024/01/16 11:44:50;;;;;;;4.80;2.30;;;;;;;-9.10;61.61;140073.22;107174;1258;25420;-61
2024/01/16 11:47:36;;;;;;;5.00;2.50;;;;;;;-9.22;62.08;140046.11;107324;1267;25326;-62
2024/01/16 11:50:31;;;;;;;4.50;2.70;;;;;;;-9.24;62.35;140039.72;107344;1260;22862;-65
2024/01/16 11:53:36;;;;;;;5.60;2.60;;;;;;;-9.24;62.63;140041.67;107258;1257;25335;-56
2024/01/16 11:56:59;;;;;;;4.20;2.20;;;;;;;-9.23;62.19;140043.41;107045;1257;25343;-64
2024/01/16 11:59:58;;;;;;;4.70;2.10;;;;;;;-9.28;62.71;140031.33;107126;1258;25378;-63
2024/01/16 12:02:44;;;;;;;6.60;2.60;;;;;;;-9.27;63.21;140031.83;107064;1263;23910;-61
2024/01/16 12:05:29;;;;;;;5.30;2.20;;;;;;;-9.12;63.16;140068.80;107013;1258;25487;-61
2024/01/16 12:08:21;;;;;;;11.10;3.10;;;;;;;-8.80;62.41;140146.92;106793;1261;25337;-64
2024/01/16 12:11:07;;;;;;;5.60;2.50;;;;;;;-8.35;61.02;140253.92;106967;1257;25406;-62
2024/01/16 12:14:01;;;;;;;4.80;2.10;;;;;;;-7.97;59.68;140346.16;107230;1261;22523;-60
2024/01/16 12:16:47;;;;;;;4.40;2.30;;;;;;;-7.65;57.92;140424.39;107542;1254;25337;-61
2024/01/16 12:19:33;;;;;;;4.60;2.20;;;;;;;-7.59;57.04;140437.97;107727;1257;25363;-63
2024/01/16 12:22:22;;;;;;;5.30;2.20;;;;;;;-7.51;56.70;140456.50;107358;1258;25354;-61
2024/01/16 12:25:08;;;;;;;5.30;2.20;;;;;;;-7.41;55.86;140481.41;107553;1258;25353;-62
2024/01/16 12:27:58;;;;;;;5.70;2.60;;;;;;;-7.56;55.44;140444.39;107269;1263;23178;-60